createdAt,value
2018-02-08T00:02:27.610Z,3.50
2018-02-08T00:05:02.495Z,3.50
2018-02-08T00:07:38.492Z,3.50
2018-02-08T00:10:14.303Z,3.50
2018-02-08T00:12:49.184Z,3.40
2018-02-08T00:15:24.074Z,3.50
2018-02-08T00:17:58.950Z,3.40
2018-02-08T00:20:33.952Z,3.40
2018-02-08T00:23:08.967Z,3.40
2018-02-08T00:25:43.933Z,3.30
2018-02-08T00:28:18.941Z,3.40
2018-02-08T00:30:53.896Z,3.40
2018-02-08T00:33:28.842Z,3.30
2018-02-08T00:36:04.676Z,3.30
2018-02-08T00:38:39.528Z,3.30
2018-02-08T00:41:14.359Z,3.30
2018-02-08T00:43:50.330Z,3.20
2018-02-08T00:46:25.175Z,3.20
2018-02-08T00:49:00.077Z,3.20
2018-02-08T00:51:34.894Z,3.30
2018-02-08T00:54:09.802Z,3.30
2018-02-08T00:56:44.671Z,3.30
2018-02-08T00:59:19.511Z,3.30
2018-02-08T01:01:54.402Z,3.30
2018-02-08T01:04:30.157Z,3.30
2018-02-08T01:07:05.023Z,3.30
2018-02-08T01:09:40.625Z,3.30
2018-02-08T01:12:15.683Z,3.30
2018-02-08T01:14:50.667Z,3.30
2018-02-08T01:17:25.642Z,3.30
2018-02-08T01:20:00.532Z,3.20
2018-02-08T01:22:35.406Z,3.20
2018-02-08T01:25:10.398Z,3.20
2018-02-08T01:27:45.273Z,3.10
2018-02-08T01:30:21.433Z,3.10
2018-02-08T01:32:56.323Z,3.10
2018-02-08T01:35:31.274Z,3.10
2018-02-08T01:38:06.252Z,3.10
2018-02-08T01:40:41.860Z,3.10
2018-02-08T01:43:16.719Z,3.00
2018-02-08T01:45:51.551Z,3.10
2018-02-08T01:48:26.545Z,3.10
2018-02-08T01:51:01.522Z,3.00
2018-02-08T01:53:36.572Z,2.90
2018-02-08T01:56:11.394Z,2.90
2018-02-08T01:58:47.130Z,2.90
2018-02-08T02:01:22.016Z,2.80
2018-02-08T02:03:57.044Z,2.90
2018-02-08T02:06:31.866Z,2.90
2018-02-08T02:09:07.487Z,3.00
2018-02-08T02:11:36.502Z,2.90
2018-02-08T02:14:05.659Z,2.90
2018-02-08T02:16:35.447Z,3.00
2018-02-08T02:19:04.495Z,2.90
2018-02-08T02:21:33.515Z,2.90
2018-02-08T02:24:02.583Z,2.90
2018-02-08T02:26:31.640Z,2.90
2018-02-08T02:29:01.475Z,2.90
2018-02-08T02:31:31.358Z,2.90
2018-02-08T02:34:00.410Z,2.80
2018-02-08T02:36:29.432Z,3.00
2018-02-08T02:38:58.487Z,3.00
2018-02-08T02:41:27.502Z,3.00
2018-02-08T02:43:56.606Z,3.00
2018-02-08T02:46:29.939Z,3.10
2018-02-08T02:48:59.304Z,3.00
2018-02-08T02:51:28.322Z,3.00
2018-02-08T02:53:57.335Z,3.10
2018-02-08T02:56:26.386Z,3.10
2018-02-08T02:58:55.476Z,3.10
2018-02-08T03:01:24.550Z,3.10
2018-02-08T03:03:53.542Z,3.10
2018-02-08T03:06:22.600Z,3.10
2018-02-08T03:08:52.383Z,3.10
2018-02-08T03:11:21.435Z,3.00
2018-02-08T03:13:50.459Z,3.10
2018-02-08T03:16:19.539Z,3.10
2018-02-08T03:18:48.559Z,3.10
2018-02-08T03:21:17.586Z,3.20
2018-02-08T03:23:46.646Z,3.20
2018-02-08T03:26:15.653Z,3.10
2018-02-08T03:28:44.757Z,3.10
2018-02-08T03:31:16.598Z,3.20
2018-02-08T03:33:46.419Z,3.20
2018-02-08T03:36:15.461Z,3.20
2018-02-08T03:38:45.450Z,3.20
2018-02-08T03:41:15.330Z,3.30
2018-02-08T03:43:44.365Z,3.20
2018-02-08T03:46:14.178Z,3.30
2018-02-08T03:48:43.949Z,3.20
2018-02-08T03:51:12.976Z,3.20
2018-02-08T03:53:42.799Z,3.20
2018-02-08T03:56:12.602Z,3.10
2018-02-08T03:58:42.387Z,3.10
2018-02-08T04:01:11.455Z,3.10
2018-02-08T04:03:40.475Z,3.20
2018-02-08T04:06:09.491Z,3.10
2018-02-08T04:08:39.298Z,3.10
2018-02-08T04:11:08.321Z,3.10
2018-02-08T04:13:37.375Z,3.10
2018-02-08T04:16:06.406Z,3.10
2018-02-08T04:18:36.214Z,3.00
2018-02-08T04:21:06.031Z,3.10
2018-02-08T04:23:35.065Z,3.00
2018-02-08T04:26:04.431Z,3.10
2018-02-08T04:28:35.118Z,3.00
2018-02-08T04:31:05.078Z,2.90
2018-02-08T04:33:34.114Z,3.00
2018-02-08T04:36:03.171Z,2.90
2018-02-08T04:38:49.906Z,2.90
2018-02-08T04:41:36.555Z,2.80
2018-02-08T04:44:29.682Z,2.60
2018-02-08T04:47:16.355Z,2.60
2018-02-08T04:49:45.370Z,2.50
2018-02-08T04:52:14.399Z,2.40
2018-02-08T04:54:43.437Z,2.50
2018-02-08T04:57:12.490Z,2.50
2018-02-08T04:59:42.296Z,2.50
2018-02-08T05:02:12.220Z,2.40
2018-02-08T05:04:41.239Z,2.50
2018-02-08T05:07:10.287Z,2.50
2018-02-08T05:09:39.335Z,2.50
2018-02-08T05:12:08.391Z,2.60
2018-02-08T05:14:37.463Z,2.50
2018-02-08T05:17:06.482Z,2.50
2018-02-08T05:19:35.551Z,2.50
2018-02-08T05:22:04.608Z,2.50
2018-02-08T05:24:33.672Z,2.50
2018-02-08T05:27:02.694Z,2.50
2018-02-08T05:29:31.763Z,2.50
2018-02-08T05:32:00.775Z,2.60
2018-02-08T05:34:29.818Z,2.60
2018-02-08T05:36:58.841Z,2.60
2018-02-08T05:39:28.754Z,2.60
2018-02-08T05:41:57.774Z,2.50
2018-02-08T05:44:26.852Z,2.50
2018-02-08T05:46:55.918Z,2.50
2018-02-08T05:49:25.012Z,2.40
2018-02-08T05:51:54.069Z,2.30
2018-02-08T05:54:23.119Z,2.40
2018-02-08T05:56:52.140Z,2.40
2018-02-08T05:59:21.182Z,2.30
2018-02-08T06:01:50.248Z,2.30
2018-02-08T06:04:19.373Z,2.40
2018-02-08T06:06:48.412Z,2.30
2018-02-08T06:09:18.247Z,2.30
2018-02-08T06:11:48.231Z,2.30
2018-02-08T06:14:18.060Z,2.40
2018-02-08T06:16:47.069Z,2.30
2018-02-08T06:19:16.123Z,2.50
2018-02-08T06:21:45.145Z,2.50
2018-02-08T06:24:14.198Z,2.60
2018-02-08T06:26:43.997Z,2.60
2018-02-08T06:29:13.037Z,2.60
2018-02-08T06:31:42.064Z,2.60
2018-02-08T06:34:11.102Z,2.60
2018-02-08T06:36:40.965Z,2.70
2018-02-08T06:39:10.013Z,2.60
2018-02-08T06:41:39.803Z,2.70
2018-02-08T06:44:12.747Z,2.60
2018-02-08T06:46:41.765Z,2.70
2018-02-08T06:49:11.779Z,2.70
2018-02-08T06:51:40.857Z,2.70
2018-02-08T06:54:09.877Z,2.70
2018-02-08T06:56:38.922Z,2.70
2018-02-08T06:59:09.003Z,2.70
2018-02-08T07:01:38.031Z,2.60
2018-02-08T07:04:07.086Z,2.60
2018-02-08T07:06:36.107Z,2.50
2018-02-08T07:09:05.170Z,2.40
2018-02-08T07:11:34.210Z,2.40
2018-02-08T07:14:06.164Z,2.30
2018-02-08T07:16:35.992Z,2.20
2018-02-08T07:19:05.011Z,2.20
2018-02-08T07:21:36.579Z,2.20
2018-02-08T07:24:05.731Z,2.10
2018-02-08T07:26:34.807Z,2.00
2018-02-08T07:29:10.635Z,2.00
2018-02-08T07:31:39.691Z,2.00
2018-02-08T07:34:08.760Z,2.10
2018-02-08T07:36:38.554Z,2.20
2018-02-08T07:39:08.383Z,2.20
2018-02-08T07:41:38.541Z,2.30
2018-02-08T07:44:07.563Z,2.30
2018-02-08T07:46:36.589Z,2.40
2018-02-08T07:49:06.435Z,2.80
2018-02-08T07:51:35.455Z,2.70
2018-02-08T07:54:07.886Z,3.10
2018-02-08T07:56:36.956Z,3.60
2018-02-08T07:59:06.790Z,4.60
2018-02-08T08:01:35.862Z,4.50
2018-02-08T08:04:05.690Z,5.40
2018-02-08T08:06:35.473Z,5.70
2018-02-08T08:09:04.603Z,5.60
2018-02-08T08:11:33.656Z,5.70
2018-02-08T08:14:03.466Z,6.00
2018-02-08T08:16:32.538Z,5.90
2018-02-08T08:19:01.568Z,6.10
2018-02-08T08:21:30.652Z,6.00
2018-02-08T08:23:59.694Z,5.90
2018-02-08T08:26:28.775Z,6.10
2018-02-08T08:28:58.599Z,6.30
2018-02-08T08:31:27.614Z,6.20
2018-02-08T08:33:56.823Z,6.30
2018-02-08T08:36:25.879Z,6.40
2018-02-08T08:38:55.707Z,6.70
2018-02-08T08:41:25.008Z,6.60
2018-02-08T08:43:54.039Z,6.80
2018-02-08T08:46:23.851Z,6.90
2018-02-08T08:48:52.930Z,6.80
2018-02-08T08:51:21.987Z,6.90
2018-02-08T08:53:51.076Z,6.90
2018-02-08T08:56:20.900Z,7.10
2018-02-08T08:58:49.932Z,7.00
2018-02-08T09:01:18.983Z,7.10
2018-02-08T09:03:48.111Z,7.20
2018-02-08T09:06:17.267Z,7.10
2018-02-08T09:08:46.299Z,7.10
2018-02-08T09:11:15.305Z,7.10
2018-02-08T09:13:44.475Z,7.20
2018-02-08T09:16:13.485Z,7.30
2018-02-08T09:18:42.600Z,7.40
2018-02-08T09:21:11.714Z,7.50
2018-02-08T09:23:41.555Z,7.50
2018-02-08T09:26:10.573Z,7.50
2018-02-08T09:28:39.642Z,7.60
2018-02-08T09:31:08.664Z,7.70
2018-02-08T09:33:37.694Z,7.80
2018-02-08T09:36:06.734Z,8.20
2018-02-08T09:38:35.757Z,8.60
2018-02-08T09:41:04.831Z,8.90
2018-02-08T09:43:33.882Z,9.10
2018-02-08T09:46:03.680Z,9.10
2018-02-08T09:48:32.779Z,9.00
2018-02-08T09:51:02.583Z,8.90
2018-02-08T09:53:32.418Z,8.70
2018-02-08T09:56:01.500Z,8.60
2018-02-08T09:58:31.304Z,8.40
2018-02-08T10:01:00.355Z,8.30
2018-02-08T10:03:29.399Z,8.30
2018-02-08T10:05:58.477Z,8.20
2018-02-08T10:08:27.529Z,8.20
2018-02-08T10:10:56.551Z,8.20
2018-02-08T10:13:25.657Z,8.10
2018-02-08T10:15:54.675Z,8.10
2018-02-08T10:18:24.499Z,8.00
2018-02-08T10:20:54.278Z,8.00
2018-02-08T10:23:24.251Z,8.00
2018-02-08T10:25:53.298Z,7.90
2018-02-08T10:28:22.353Z,7.90
2018-02-08T10:30:51.398Z,7.90
2018-02-08T10:33:21.219Z,7.90
2018-02-08T10:35:51.074Z,8.00
2018-02-08T10:38:20.157Z,7.90
2018-02-08T10:40:49.235Z,8.10
2018-02-08T10:43:18.404Z,8.00
2018-02-08T10:45:48.200Z,7.80
2018-02-08T10:48:17.277Z,7.70
2018-02-08T10:50:46.376Z,7.70
2018-02-08T10:53:15.478Z,7.80
2018-02-08T10:55:44.543Z,7.80
2018-02-08T10:58:13.646Z,7.80
2018-02-08T11:00:43.393Z,7.90
2018-02-08T11:03:12.451Z,7.80
2018-02-08T11:05:41.484Z,7.90
2018-02-08T11:08:10.584Z,8.00
2018-02-08T11:10:39.604Z,8.10
2018-02-08T11:13:08.651Z,8.10
2018-02-08T11:15:37.810Z,8.20
2018-02-08T11:18:06.843Z,8.20
2018-02-08T11:20:35.878Z,8.20
2018-02-08T11:23:04.961Z,8.20
2018-02-08T11:25:33.987Z,8.20
2018-02-08T11:28:03.024Z,8.20
2018-02-08T11:30:32.082Z,8.30
2018-02-08T11:33:01.105Z,8.40
2018-02-08T11:35:30.168Z,8.50
2018-02-08T11:37:59.195Z,8.70
2018-02-08T11:40:28.289Z,8.80
2018-02-08T11:42:57.319Z,8.80
2018-02-08T11:45:26.354Z,8.90
2018-02-08T11:47:55.445Z,9.00
2018-02-08T11:50:24.477Z,9.20
2018-02-08T11:52:53.592Z,9.40
2018-02-08T11:55:23.407Z,9.60
2018-02-08T11:57:52.436Z,9.60
2018-02-08T12:00:22.478Z,9.70
2018-02-08T12:02:51.619Z,9.80
2018-02-08T12:05:21.447Z,10.30
2018-02-08T12:07:50.492Z,10.20
2018-02-08T12:10:19.611Z,10.60
2018-02-08T12:12:49.407Z,11.10
2018-02-08T12:15:18.483Z,11.00
2018-02-08T12:17:47.527Z,11.20
2018-02-08T12:20:16.582Z,11.40
2018-02-08T12:22:45.619Z,11.50
2018-02-08T12:25:14.723Z,11.80
2018-02-08T12:27:43.764Z,12.10
2018-02-08T12:30:12.960Z,12.60
2018-02-08T12:32:41.992Z,13.40
2018-02-08T12:35:11.060Z,14.00
2018-02-08T12:37:40.096Z,14.90
2018-02-08T12:40:09.164Z,15.90
2018-02-08T12:42:38.972Z,17.60
2018-02-08T12:45:08.829Z,18.10
2018-02-08T12:47:37.860Z,18.00
2018-02-08T12:50:06.900Z,18.60
2018-02-08T12:52:35.999Z,18.90
2018-02-08T12:55:05.106Z,19.30
2018-02-08T12:57:34.157Z,19.70
2018-02-08T13:00:03.950Z,20.70
2018-02-08T13:02:33.021Z,20.60
2018-02-08T13:05:02.116Z,20.80
2018-02-08T13:07:31.193Z,21.10
2018-02-08T13:10:00.251Z,21.40
2018-02-08T13:12:30.055Z,21.50
2018-02-08T13:14:59.890Z,21.80
2018-02-08T13:17:28.929Z,21.70
2018-02-08T13:19:58.003Z,21.70
2018-02-08T13:22:27.041Z,21.70
2018-02-08T13:24:56.117Z,21.60
2018-02-08T13:27:25.567Z,21.20
2018-02-08T13:29:54.586Z,21.10
2018-02-08T13:32:23.654Z,21.10
2018-02-08T13:34:52.749Z,21.00
2018-02-08T13:37:21.819Z,20.70
2018-02-08T13:40:09.387Z,18.90
2018-02-08T13:42:38.776Z,18.80
2018-02-08T13:45:07.836Z,17.90
2018-02-08T13:47:46.809Z,16.90
2018-02-08T13:50:18.692Z,15.90
2018-02-08T13:52:51.240Z,14.90
2018-02-08T13:55:20.764Z,14.10
2018-02-08T14:01:09.045Z,12.70
2018-02-08T14:03:38.163Z,12.20
2018-02-08T14:06:07.195Z,11.80
2018-02-08T14:08:36.323Z,11.40
2018-02-08T14:11:05.367Z,11.20
2018-02-08T14:13:35.166Z,10.70
2018-02-08T14:16:05.040Z,10.40
2018-02-08T14:18:34.086Z,10.30
2018-02-08T14:21:03.887Z,10.10
2018-02-08T14:23:33.003Z,10.00
2018-02-08T14:26:02.015Z,9.80
2018-02-08T14:28:31.071Z,9.50
2018-02-08T14:31:00.890Z,9.10
2018-02-08T14:33:30.691Z,8.80
2018-02-08T14:36:00.511Z,8.60
2018-02-08T14:38:30.298Z,8.40
2018-02-08T14:40:59.385Z,8.30
2018-02-08T14:43:28.457Z,8.10
2018-02-08T14:45:57.486Z,7.90
2018-02-08T14:48:26.559Z,7.60
2018-02-08T14:50:55.587Z,7.50
2018-02-08T14:53:25.393Z,7.10
2018-02-08T14:55:54.491Z,7.10
2018-02-08T14:58:23.524Z,7.10
2018-02-08T15:00:52.551Z,7.10
2018-02-08T15:03:21.612Z,7.10
2018-02-08T15:05:50.635Z,7.10
2018-02-08T15:08:19.691Z,7.10
2018-02-08T15:10:48.824Z,7.10
2018-02-08T15:13:17.914Z,7.10
2018-02-08T15:15:46.943Z,7.00
2018-02-08T15:18:16.036Z,6.90
2018-02-08T15:20:45.054Z,6.90
2018-02-08T15:23:14.839Z,6.80
2018-02-08T15:25:43.897Z,6.70
2018-02-08T15:28:12.913Z,6.90
2018-02-08T15:30:41.976Z,6.90
2018-02-08T15:33:11.021Z,6.90
2018-02-08T15:35:40.043Z,6.90
2018-02-08T15:38:09.090Z,6.80
2018-02-08T15:40:38.120Z,6.80
2018-02-08T15:43:07.946Z,6.80
2018-02-08T15:45:36.981Z,6.70
2018-02-08T15:48:06.013Z,6.80
2018-02-08T15:50:35.854Z,6.80
2018-02-08T15:53:04.892Z,6.70
2018-02-08T15:55:33.902Z,6.70
2018-02-08T15:58:02.973Z,6.70
2018-02-08T16:00:32.119Z,6.60
2018-02-08T16:03:11.862Z,6.60
2018-02-08T16:05:40.878Z,6.60
2018-02-08T16:08:09.930Z,6.50
2018-02-08T16:10:39.011Z,6.50
2018-02-08T16:13:08.863Z,6.40
2018-02-08T16:15:37.904Z,6.30
2018-02-08T16:18:06.945Z,6.40
2018-02-08T16:20:36.720Z,6.30
2018-02-08T16:23:05.870Z,6.30
2018-02-08T16:25:34.918Z,6.30
2018-02-08T16:28:04.768Z,6.30
2018-02-08T16:30:34.911Z,6.20
2018-02-08T16:33:10.343Z,6.10
2018-02-08T16:35:39.409Z,6.10
2018-02-08T16:38:08.475Z,6.00
2018-02-08T16:40:37.541Z,5.90
2018-02-08T16:43:08.691Z,5.90
2018-02-08T16:45:37.751Z,5.80
2018-02-08T16:48:07.544Z,5.60
2018-02-08T16:50:36.555Z,5.60
2018-02-08T16:53:06.978Z,5.60
2018-02-08T16:55:36.031Z,5.50
2018-02-08T16:58:05.068Z,5.40
2018-02-08T17:00:34.132Z,5.30
2018-02-08T17:03:03.579Z,5.20
2018-02-08T17:05:34.513Z,5.00
2018-02-08T17:08:09.630Z,5.00
2018-02-08T17:10:44.831Z,5.00
2018-02-08T17:13:19.743Z,4.80
2018-02-08T17:15:54.999Z,4.80
2018-02-08T17:18:29.883Z,4.60
2018-02-08T17:21:04.872Z,4.60
2018-02-08T17:23:40.044Z,4.50
2018-02-08T17:26:15.119Z,4.50
2018-02-08T17:28:50.141Z,4.50
2018-02-08T17:31:25.509Z,4.40
2018-02-08T17:34:00.660Z,4.30
2018-02-08T17:36:35.855Z,4.30
2018-02-08T17:39:10.848Z,4.30
2018-02-08T17:41:46.005Z,4.20
2018-02-08T17:44:26.087Z,4.20
2018-02-08T17:47:01.054Z,4.10
2018-02-08T17:49:36.037Z,4.10
2018-02-08T17:52:11.043Z,4.00
2018-02-08T17:54:46.821Z,3.90
2018-02-08T17:57:21.888Z,3.80
2018-02-08T17:59:57.014Z,3.80
2018-02-08T18:02:31.970Z,3.70
2018-02-08T18:05:06.900Z,3.70
2018-02-08T18:07:41.979Z,3.50
2018-02-08T18:10:16.909Z,3.50
2018-02-08T18:12:53.906Z,3.40
2018-02-08T18:15:28.769Z,3.40
2018-02-08T18:18:04.564Z,3.30
2018-02-08T18:20:39.450Z,3.20
2018-02-08T18:23:14.485Z,3.30
2018-02-08T18:25:50.108Z,3.10
2018-02-08T18:28:25.283Z,3.10
2018-02-08T18:31:00.905Z,3.10
2018-02-08T18:33:35.774Z,3.00
2018-02-08T18:36:10.671Z,3.10
2018-02-08T18:38:45.595Z,3.00
2018-02-08T18:41:22.439Z,3.00
2018-02-08T18:43:57.748Z,2.90
2018-02-08T18:46:32.626Z,2.90
2018-02-08T18:49:08.687Z,2.90
2018-02-08T18:51:43.614Z,2.90
2018-02-08T18:54:18.496Z,2.80
2018-02-08T18:56:53.494Z,2.80
2018-02-08T18:59:29.286Z,2.80
2018-02-08T19:02:05.010Z,2.70
2018-02-08T19:04:42.085Z,2.70
2018-02-08T19:07:16.928Z,2.70
2018-02-08T19:09:52.627Z,2.60
2018-02-08T19:12:27.701Z,2.50
2018-02-08T19:15:02.753Z,2.50
2018-02-08T19:17:38.550Z,2.40
2018-02-08T19:20:13.418Z,2.40
2018-02-08T19:22:49.357Z,2.40
2018-02-08T19:25:24.239Z,2.30
2018-02-08T19:27:59.134Z,2.30
2018-02-08T19:30:33.985Z,2.20
2018-02-08T19:33:09.676Z,2.20
2018-02-08T19:35:44.617Z,2.10
2018-02-08T19:38:19.611Z,2.10
2018-02-08T19:40:54.510Z,2.10
2018-02-08T19:43:29.583Z,2.10
2018-02-08T19:46:06.340Z,2.10
2018-02-08T19:48:44.807Z,2.00
2018-02-08T19:51:21.724Z,2.10
2018-02-08T19:53:57.672Z,2.10
2018-02-08T19:56:32.614Z,2.10
2018-02-08T19:59:07.466Z,2.10
2018-02-08T20:01:42.468Z,2.00
2018-02-08T20:04:17.725Z,2.00
2018-02-08T20:06:53.910Z,2.00
2018-02-08T20:09:28.978Z,1.90
2018-02-08T20:12:03.898Z,1.90
2018-02-08T20:14:38.875Z,1.80
2018-02-08T20:17:14.757Z,1.80
2018-02-08T20:19:49.726Z,1.80
2018-02-08T20:22:25.536Z,1.80
2018-02-08T20:25:00.575Z,1.70
2018-02-08T20:27:38.961Z,1.70
2018-02-08T20:30:17.814Z,1.60
2018-02-08T20:32:52.888Z,1.60
2018-02-08T20:35:28.524Z,1.60
2018-02-08T20:38:05.156Z,1.50
2018-02-08T20:40:40.110Z,1.40
2018-02-08T20:43:31.565Z,1.50
2018-02-08T20:46:10.917Z,1.40
2018-02-08T20:48:47.991Z,1.30
2018-02-08T20:51:23.002Z,1.40
2018-02-08T20:53:57.935Z,1.40
2018-02-08T20:56:32.909Z,1.30
2018-02-08T20:59:08.771Z,1.30
2018-02-08T21:01:44.371Z,1.20
2018-02-08T21:04:20.412Z,1.20
2018-02-08T21:06:55.274Z,1.20
2018-02-08T21:09:30.371Z,1.20
2018-02-08T21:12:05.217Z,1.20
2018-02-08T21:14:40.224Z,1.20
2018-02-08T21:17:15.064Z,1.20
2018-02-08T21:19:49.937Z,1.20
2018-02-08T21:22:24.798Z,1.10
2018-02-08T21:24:59.701Z,1.10
2018-02-08T21:27:34.523Z,1.00
2018-02-08T21:30:10.343Z,0.90
2018-02-08T21:32:45.264Z,0.90
2018-02-08T21:35:20.144Z,0.90
2018-02-08T21:37:55.029Z,0.90
2018-02-08T21:40:30.097Z,0.90
2018-02-08T21:43:05.339Z,0.90
2018-02-08T21:45:41.212Z,0.90
2018-02-08T21:48:16.048Z,0.80
2018-02-08T21:50:51.080Z,0.80
2018-02-08T21:53:26.055Z,0.80
2018-02-08T21:56:01.060Z,0.80
2018-02-08T21:58:35.947Z,0.80
2018-02-08T22:01:10.836Z,0.70
2018-02-08T22:03:45.680Z,0.70
2018-02-08T22:06:20.709Z,0.70
2018-02-08T22:08:55.675Z,0.70
2018-02-08T22:11:31.822Z,0.80
2018-02-08T22:14:06.838Z,0.80
2018-02-08T22:16:41.911Z,0.80
2018-02-08T22:19:16.769Z,0.90
2018-02-08T22:21:51.708Z,1.00
2018-02-08T22:24:26.702Z,1.00
2018-02-08T22:27:01.983Z,1.00
2018-02-08T22:29:36.922Z,1.10
2018-02-08T22:32:11.958Z,1.10
2018-02-08T22:34:46.924Z,1.20
2018-02-08T22:37:21.789Z,1.30
2018-02-08T22:39:57.412Z,1.40
2018-02-08T22:42:33.205Z,1.50
2018-02-08T22:45:08.053Z,1.40
2018-02-08T22:47:43.148Z,1.50
2018-02-08T22:50:18.151Z,1.50
2018-02-08T22:52:53.080Z,1.60
2018-02-08T22:55:28.177Z,1.60
2018-02-08T22:58:03.134Z,1.60
2018-02-08T23:00:38.045Z,1.70
2018-02-08T23:03:13.087Z,1.70
2018-02-08T23:05:47.979Z,1.70
2018-02-08T23:08:23.738Z,1.70
2018-02-08T23:10:58.643Z,1.80
2018-02-08T23:13:33.475Z,1.80
2018-02-08T23:16:08.475Z,1.90
2018-02-08T23:18:43.342Z,2.00
2018-02-08T23:21:18.233Z,1.90
2018-02-08T23:23:54.066Z,1.90
2018-02-08T23:26:28.923Z,1.90
2018-02-08T23:29:03.770Z,2.00
2018-02-08T23:31:38.673Z,2.00
2018-02-08T23:34:13.562Z,2.10
2018-02-08T23:36:48.468Z,2.10
2018-02-08T23:39:23.442Z,2.10
2018-02-08T23:41:59.137Z,2.20
2018-02-08T23:44:34.091Z,2.10
2018-02-08T23:47:08.967Z,2.20
2018-02-08T23:49:44.556Z,2.20
2018-02-08T23:52:19.474Z,2.10
2018-02-08T23:54:54.327Z,2.20
2018-02-08T23:57:29.428Z,2.20
